sensor_id;sensor_type;location;lat;lon;timestamp;P1;durP1;ratioP1;P2;durP2;ratioP2
57025;SDS011;43961;52.940;6.834;2022-10-31T00:01:14;51.05;;;30.77;;
57025;SDS011;43961;52.940;6.834;2022-10-31T00:03:42;50.08;;;33.22;;
57025;SDS011;43961;52.940;6.834;2022-10-31T00:06:08;55.75;;;30.33;;
57025;SDS011;43961;52.940;6.834;2022-10-31T00:08:34;56.05;;;32.08;;
57025;SDS011;43961;52.940;6.834;2022-10-31T00:10:59;44.97;;;29.42;;
57025;SDS011;43961;52.940;6.834;2022-10-31T00:13:25;57.25;;;31.83;;
57025;SDS011;43961;52.940;6.834;2022-10-31T00:15:51;48.95;;;28.48;;
57025;SDS011;43961;52.940;6.834;2022-10-31T00:18:17;46.85;;;28.15;;
57025;SDS011;43961;52.940;6.834;2022-10-31T00:20:42;43.35;;;26.20;;
57025;SDS011;43961;52.940;6.834;2022-10-31T00:23:08;50.65;;;27.02;;
57025;SDS011;43961;52.940;6.834;2022-10-31T00:25:36;45.03;;;25.33;;
57025;SDS011;43961;52.940;6.834;2022-10-31T00:28:05;54.40;;;26.42;;
57025;SDS011;43961;52.940;6.834;2022-10-31T00:30:32;52.25;;;26.00;;
57025;SDS011;43961;52.940;6.834;2022-10-31T00:32:58;54.72;;;29.10;;
57025;SDS011;43961;52.940;6.834;2022-10-31T00:35:24;43.30;;;26.03;;
57025;SDS011;43961;52.940;6.834;2022-10-31T00:37:51;47.50;;;25.70;;
57025;SDS011;43961;52.940;6.834;2022-10-31T00:40:17;61.33;;;28.90;;
57025;SDS011;43961;52.940;6.834;2022-10-31T00:42:43;44.55;;;28.90;;
57025;SDS011;43961;52.940;6.834;2022-10-31T00:45:09;57.55;;;28.58;;
57025;SDS011;43961;52.940;6.834;2022-10-31T00:47:35;48.28;;;29.67;;
57025;SDS011;43961;52.940;6.834;2022-10-31T00:50:00;48.33;;;27.95;;
57025;SDS011;43961;52.940;6.834;2022-10-31T00:52:26;46.00;;;25.73;;
57025;SDS011;43961;52.940;6.834;2022-10-31T00:54:52;43.20;;;27.88;;
57025;SDS011;43961;52.940;6.834;2022-10-31T00:57:17;39.95;;;24.48;;
57025;SDS011;43961;52.940;6.834;2022-10-31T00:59:43;45.60;;;25.98;;
57025;SDS011;43961;52.940;6.834;2022-10-31T01:02:08;43.65;;;25.63;;
57025;SDS011;43961;52.940;6.834;2022-10-31T01:04:34;44.72;;;26.77;;
57025;SDS011;43961;52.940;6.834;2022-10-31T01:07:00;54.28;;;29.88;;
57025;SDS011;43961;52.940;6.834;2022-10-31T01:09:25;50.03;;;28.17;;
57025;SDS011;43961;52.940;6.834;2022-10-31T01:11:51;59.88;;;28.20;;
57025;SDS011;43961;52.940;6.834;2022-10-31T01:14:18;42.65;;;27.05;;
57025;SDS011;43961;52.940;6.834;2022-10-31T01:16:43;45.08;;;26.73;;
57025;SDS011;43961;52.940;6.834;2022-10-31T01:19:09;43.90;;;25.08;;
57025;SDS011;43961;52.940;6.834;2022-10-31T01:21:34;41.17;;;24.05;;
57025;SDS011;43961;52.940;6.834;2022-10-31T01:24:00;40.83;;;25.52;;
57025;SDS011;43961;52.940;6.834;2022-10-31T01:26:29;47.88;;;28.60;;
57025;SDS011;43961;52.940;6.834;2022-10-31T01:29:00;50.45;;;24.55;;
57025;SDS011;43961;52.940;6.834;2022-10-31T01:31:29;45.08;;;27.83;;
57025;SDS011;43961;52.940;6.834;2022-10-31T01:33:57;39.97;;;27.15;;
57025;SDS011;43961;52.940;6.834;2022-10-31T01:36:24;56.50;;;30.40;;
57025;SDS011;43961;52.940;6.834;2022-10-31T01:38:56;49.15;;;28.27;;
57025;SDS011;43961;52.940;6.834;2022-10-31T01:43:55;53.63;;;31.05;;
57025;SDS011;43961;52.940;6.834;2022-10-31T01:49:09;55.13;;;32.95;;
57025;SDS011;43961;52.940;6.834;2022-10-31T01:51:45;57.25;;;34.60;;
57025;SDS011;43961;52.940;6.834;2022-10-31T01:54:16;62.75;;;34.20;;
57025;SDS011;43961;52.940;6.834;2022-10-31T01:56:47;62.03;;;34.33;;
57025;SDS011;43961;52.940;6.834;2022-10-31T01:59:16;53.10;;;33.28;;
57025;SDS011;43961;52.940;6.834;2022-10-31T02:01:45;55.85;;;31.98;;
57025;SDS011;43961;52.940;6.834;2022-10-31T02:04:12;62.88;;;32.85;;
57025;SDS011;43961;52.940;6.834;2022-10-31T02:06:50;59.72;;;32.95;;
57025;SDS011;43961;52.940;6.834;2022-10-31T02:09:20;83.20;;;37.35;;
57025;SDS011;43961;52.940;6.834;2022-10-31T02:11:49;63.85;;;36.20;;
57025;SDS011;43961;52.940;6.834;2022-10-31T02:14:17;63.75;;;38.25;;
57025;SDS011;43961;52.940;6.834;2022-10-31T02:16:43;58.15;;;36.47;;
57025;SDS011;43961;52.940;6.834;2022-10-31T02:19:09;66.60;;;36.67;;
57025;SDS011;43961;52.940;6.834;2022-10-31T02:21:48;68.75;;;38.10;;
57025;SDS011;43961;52.940;6.834;2022-10-31T02:27:11;63.05;;;37.03;;
57025;SDS011;43961;52.940;6.834;2022-10-31T02:30:06;67.22;;;40.95;;
57025;SDS011;43961;52.940;6.834;2022-10-31T02:38:21;71.20;;;38.05;;
57025;SDS011;43961;52.940;6.834;2022-10-31T02:41:18;78.20;;;40.58;;
57025;SDS011;43961;52.940;6.834;2022-10-31T02:49:43;59.28;;;37.78;;
57025;SDS011;43961;52.940;6.834;2022-10-31T02:52:23;63.75;;;36.10;;
57025;SDS011;43961;52.940;6.834;2022-10-31T02:54:51;54.55;;;33.72;;
57025;SDS011;43961;52.940;6.834;2022-10-31T02:57:19;63.95;;;35.40;;
57025;SDS011;43961;52.940;6.834;2022-10-31T02:59:49;68.43;;;37.97;;
57025;SDS011;43961;52.940;6.834;2022-10-31T03:13:10;56.63;;;35.80;;
57025;SDS011;43961;52.940;6.834;2022-10-31T03:15:43;57.22;;;34.17;;
57025;SDS011;43961;52.940;6.834;2022-10-31T03:18:28;58.15;;;35.50;;
57025;SDS011;43961;52.940;6.834;2022-10-31T03:23:29;54.72;;;33.53;;
57025;SDS011;43961;52.940;6.834;2022-10-31T03:25:57;49.63;;;33.10;;
57025;SDS011;43961;52.940;6.834;2022-10-31T03:28:28;49.33;;;33.13;;
57025;SDS011;43961;52.940;6.834;2022-10-31T03:30:56;48.75;;;32.05;;
57025;SDS011;43961;52.940;6.834;2022-10-31T03:33:28;51.20;;;32.70;;
57025;SDS011;43961;52.940;6.834;2022-10-31T03:35:59;50.50;;;31.73;;
57025;SDS011;43961;52.940;6.834;2022-10-31T03:38:29;54.92;;;34.33;;
57025;SDS011;43961;52.940;6.834;2022-10-31T03:40:57;57.15;;;34.47;;
57025;SDS011;43961;52.940;6.834;2022-10-31T03:43:24;47.47;;;30.98;;
57025;SDS011;43961;52.940;6.834;2022-10-31T03:45:55;48.35;;;30.95;;
57025;SDS011;43961;52.940;6.834;2022-10-31T03:48:21;47.42;;;32.55;;
57025;SDS011;43961;52.940;6.834;2022-10-31T03:50:59;58.47;;;31.98;;
57025;SDS011;43961;52.940;6.834;2022-10-31T03:53:49;54.30;;;31.05;;
57025;SDS011;43961;52.940;6.834;2022-10-31T03:56:43;62.08;;;31.98;;
57025;SDS011;43961;52.940;6.834;2022-10-31T03:59:35;43.95;;;30.08;;
57025;SDS011;43961;52.940;6.834;2022-10-31T04:02:06;49.10;;;28.50;;
57025;SDS011;43961;52.940;6.834;2022-10-31T04:04:35;44.25;;;29.15;;
57025;SDS011;43961;52.940;6.834;2022-10-31T04:07:03;50.33;;;29.88;;
57025;SDS011;43961;52.940;6.834;2022-10-31T04:11:58;42.53;;;29.70;;
57025;SDS011;43961;52.940;6.834;2022-10-31T04:14:26;47.25;;;27.92;;
57025;SDS011;43961;52.940;6.834;2022-10-31T04:16:54;34.45;;;23.52;;
57025;SDS011;43961;52.940;6.834;2022-10-31T04:19:20;37.95;;;26.27;;
57025;SDS011;43961;52.940;6.834;2022-10-31T04:21:46;35.42;;;23.85;;
57025;SDS011;43961;52.940;6.834;2022-10-31T04:24:11;37.78;;;26.08;;
57025;SDS011;43961;52.940;6.834;2022-10-31T04:26:37;37.97;;;24.80;;
57025;SDS011;43961;52.940;6.834;2022-10-31T04:29:03;35.15;;;21.38;;
57025;SDS011;43961;52.940;6.834;2022-10-31T04:31:28;27.05;;;21.33;;
57025;SDS011;43961;52.940;6.834;2022-10-31T04:33:54;22.63;;;18.63;;
57025;SDS011;43961;52.940;6.834;2022-10-31T04:36:20;24.75;;;19.65;;
57025;SDS011;43961;52.940;6.834;2022-10-31T04:38:46;24.80;;;19.17;;
57025;SDS011;43961;52.940;6.834;2022-10-31T04:41:11;28.58;;;19.85;;
57025;SDS011;43961;52.940;6.834;2022-10-31T04:43:37;35.92;;;24.92;;
57025;SDS011;43961;52.940;6.834;2022-10-31T04:46:03;29.13;;;22.65;;
57025;SDS011;43961;52.940;6.834;2022-10-31T04:48:29;31.02;;;20.25;;
57025;SDS011;43961;52.940;6.834;2022-10-31T04:51:01;36.42;;;23.48;;
57025;SDS011;43961;52.940;6.834;2022-10-31T04:53:27;31.58;;;22.85;;
57025;SDS011;43961;52.940;6.834;2022-10-31T04:55:54;33.97;;;24.33;;
57025;SDS011;43961;52.940;6.834;2022-10-31T04:58:19;32.47;;;21.88;;
57025;SDS011;43961;52.940;6.834;2022-10-31T05:00:45;20.88;;;16.17;;
57025;SDS011;43961;52.940;6.834;2022-10-31T05:03:11;20.52;;;17.40;;
57025;SDS011;43961;52.940;6.834;2022-10-31T05:05:36;19.90;;;16.25;;
57025;SDS011;43961;52.940;6.834;2022-10-31T05:08:02;22.75;;;15.90;;
57025;SDS011;43961;52.940;6.834;2022-10-31T05:10:28;23.73;;;17.38;;
57025;SDS011;43961;52.940;6.834;2022-10-31T05:12:56;21.27;;;15.82;;
57025;SDS011;43961;52.940;6.834;2022-10-31T05:15:23;19.23;;;17.23;;
57025;SDS011;43961;52.940;6.834;2022-10-31T05:17:51;16.52;;;8.07;;
57025;SDS011;43961;52.940;6.834;2022-10-31T05:20:17;26.95;;;20.25;;
57025;SDS011;43961;52.940;6.834;2022-10-31T05:22:48;30.85;;;20.33;;
57025;SDS011;43961;52.940;6.834;2022-10-31T05:25:15;20.45;;;12.77;;
57025;SDS011;43961;52.940;6.834;2022-10-31T05:27:43;12.82;;;11.50;;
57025;SDS011;43961;52.940;6.834;2022-10-31T05:30:11;8.25;;;5.63;;
57025;SDS011;43961;52.940;6.834;2022-10-31T05:32:48;6.75;;;4.30;;
57025;SDS011;43961;52.940;6.834;2022-10-31T05:35:16;7.25;;;4.60;;
57025;SDS011;43961;52.940;6.834;2022-10-31T05:37:46;11.43;;;10.40;;
57025;SDS011;43961;52.940;6.834;2022-10-31T05:40:12;11.02;;;10.05;;
57025;SDS011;43961;52.940;6.834;2022-10-31T05:42:39;11.88;;;10.63;;
57025;SDS011;43961;52.940;6.834;2022-10-31T05:45:07;6.97;;;5.22;;
57025;SDS011;43961;52.940;6.834;2022-10-31T05:47:37;13.55;;;11.38;;
57025;SDS011;43961;52.940;6.834;2022-10-31T05:50:03;14.05;;;11.30;;
57025;SDS011;43961;52.940;6.834;2022-10-31T05:52:30;14.23;;;12.48;;
57025;SDS011;43961;52.940;6.834;2022-10-31T05:54:56;8.25;;;5.53;;
57025;SDS011;43961;52.940;6.834;2022-10-31T05:57:22;8.52;;;5.07;;
57025;SDS011;43961;52.940;6.834;2022-10-31T05:59:47;8.10;;;4.22;;
57025;SDS011;43961;52.940;6.834;2022-10-31T06:02:13;9.45;;;6.28;;
57025;SDS011;43961;52.940;6.834;2022-10-31T06:04:39;18.92;;;15.40;;
57025;SDS011;43961;52.940;6.834;2022-10-31T06:07:04;14.93;;;13.35;;
57025;SDS011;43961;52.940;6.834;2022-10-31T06:09:30;11.65;;;5.15;;
57025;SDS011;43961;52.940;6.834;2022-10-31T06:11:55;19.42;;;14.15;;
57025;SDS011;43961;52.940;6.834;2022-10-31T06:14:21;16.48;;;14.68;;
57025;SDS011;43961;52.940;6.834;2022-10-31T06:16:47;25.67;;;15.65;;
57025;SDS011;43961;52.940;6.834;2022-10-31T06:19:12;5.90;;;4.60;;
57025;SDS011;43961;52.940;6.834;2022-10-31T06:21:38;20.88;;;14.25;;
57025;SDS011;43961;52.940;6.834;2022-10-31T06:24:03;14.68;;;13.18;;
57025;SDS011;43961;52.940;6.834;2022-10-31T06:26:30;19.35;;;15.95;;
57025;SDS011;43961;52.940;6.834;2022-10-31T06:28:55;20.08;;;15.35;;
57025;SDS011;43961;52.940;6.834;2022-10-31T06:31:21;14.20;;;8.40;;
57025;SDS011;43961;52.940;6.834;2022-10-31T06:33:46;13.52;;;6.60;;
57025;SDS011;43961;52.940;6.834;2022-10-31T06:36:12;13.15;;;6.93;;
57025;SDS011;43961;52.940;6.834;2022-10-31T06:38:37;7.72;;;4.60;;
57025;SDS011;43961;52.940;6.834;2022-10-31T06:41:06;9.88;;;5.70;;
57025;SDS011;43961;52.940;6.834;2022-10-31T06:43:32;8.52;;;5.32;;
57025;SDS011;43961;52.940;6.834;2022-10-31T06:46:01;8.85;;;5.30;;
57025;SDS011;43961;52.940;6.834;2022-10-31T06:48:28;17.13;;;15.35;;
57025;SDS011;43961;52.940;6.834;2022-10-31T06:50:57;8.90;;;5.25;;
57025;SDS011;43961;52.940;6.834;2022-10-31T06:53:28;19.98;;;17.80;;
57025;SDS011;43961;52.940;6.834;2022-10-31T06:55:57;20.90;;;17.08;;
57025;SDS011;43961;52.940;6.834;2022-10-31T06:58:23;25.67;;;20.60;;
57025;SDS011;43961;52.940;6.834;2022-10-31T07:00:50;31.08;;;22.13;;
57025;SDS011;43961;52.940;6.834;2022-10-31T07:03:15;18.85;;;16.85;;
57025;SDS011;43961;52.940;6.834;2022-10-31T07:05:42;22.75;;;19.15;;
57025;SDS011;43961;52.940;6.834;2022-10-31T07:08:10;22.20;;;19.63;;
57025;SDS011;43961;52.940;6.834;2022-10-31T07:10:38;21.20;;;18.35;;
57025;SDS011;43961;52.940;6.834;2022-10-31T07:13:06;27.63;;;20.87;;
57025;SDS011;43961;52.940;6.834;2022-10-31T07:15:35;23.70;;;20.27;;
57025;SDS011;43961;52.940;6.834;2022-10-31T07:18:03;15.60;;;8.18;;
57025;SDS011;43961;52.940;6.834;2022-10-31T07:20:30;9.38;;;7.32;;
57025;SDS011;43961;52.940;6.834;2022-10-31T07:22:56;9.27;;;5.32;;
57025;SDS011;43961;52.940;6.834;2022-10-31T07:25:22;10.20;;;6.47;;
57025;SDS011;43961;52.940;6.834;2022-10-31T07:27:48;11.38;;;6.60;;
57025;SDS011;43961;52.940;6.834;2022-10-31T07:30:14;20.30;;;18.27;;
57025;SDS011;43961;52.940;6.834;2022-10-31T07:32:48;22.63;;;18.80;;
57025;SDS011;43961;52.940;6.834;2022-10-31T07:35:19;10.32;;;6.03;;
57025;SDS011;43961;52.940;6.834;2022-10-31T07:37:54;20.75;;;18.60;;
57025;SDS011;43961;52.940;6.834;2022-10-31T07:40:22;11.20;;;7.57;;
57025;SDS011;43961;52.940;6.834;2022-10-31T07:42:49;29.03;;;23.20;;
57025;SDS011;43961;52.940;6.834;2022-10-31T07:45:18;14.45;;;8.25;;
57025;SDS011;43961;52.940;6.834;2022-10-31T07:47:47;25.23;;;22.58;;
57025;SDS011;43961;52.940;6.834;2022-10-31T07:50:19;22.30;;;9.25;;
57025;SDS011;43961;52.940;6.834;2022-10-31T07:58:13;27.00;;;23.55;;
57025;SDS011;43961;52.940;6.834;2022-10-31T08:00:42;26.83;;;23.88;;
57025;SDS011;43961;52.940;6.834;2022-10-31T08:03:10;28.83;;;23.80;;
57025;SDS011;43961;52.940;6.834;2022-10-31T08:05:37;26.33;;;22.88;;
57025;SDS011;43961;52.940;6.834;2022-10-31T08:08:04;48.65;;;30.02;;
57025;SDS011;43961;52.940;6.834;2022-10-31T08:10:30;45.97;;;32.47;;
57025;SDS011;43961;52.940;6.834;2022-10-31T08:12:57;43.72;;;32.80;;
57025;SDS011;43961;52.940;6.834;2022-10-31T08:15:25;52.38;;;35.05;;
57025;SDS011;43961;52.940;6.834;2022-10-31T08:17:52;21.77;;;12.40;;
57025;SDS011;43961;52.940;6.834;2022-10-31T08:20:18;26.98;;;14.18;;
57025;SDS011;43961;52.940;6.834;2022-10-31T08:22:52;51.83;;;37.67;;
57025;SDS011;43961;52.940;6.834;2022-10-31T08:25:18;56.22;;;39.95;;
57025;SDS011;43961;52.940;6.834;2022-10-31T08:27:48;74.53;;;44.10;;
57025;SDS011;43961;52.940;6.834;2022-10-31T08:30:17;32.38;;;16.25;;
57025;SDS011;43961;52.940;6.834;2022-10-31T08:32:44;29.23;;;14.45;;
57025;SDS011;43961;52.940;6.834;2022-10-31T08:35:09;62.42;;;44.83;;
57025;SDS011;43961;52.940;6.834;2022-10-31T08:37:35;29.55;;;13.70;;
57025;SDS011;43961;52.940;6.834;2022-10-31T08:40:01;24.83;;;13.10;;
57025;SDS011;43961;52.940;6.834;2022-10-31T08:42:26;65.78;;;45.80;;
57025;SDS011;43961;52.940;6.834;2022-10-31T08:44:52;69.03;;;49.05;;
57025;SDS011;43961;52.940;6.834;2022-10-31T08:47:17;71.07;;;51.63;;
57025;SDS011;43961;52.940;6.834;2022-10-31T08:49:43;75.85;;;51.33;;
57025;SDS011;43961;52.940;6.834;2022-10-31T08:52:09;80.78;;;51.72;;
57025;SDS011;43961;52.940;6.834;2022-10-31T08:54:34;72.75;;;46.20;;
57025;SDS011;43961;52.940;6.834;2022-10-31T08:57:00;79.90;;;53.55;;
57025;SDS011;43961;52.940;6.834;2022-10-31T08:59:26;78.93;;;51.75;;
57025;SDS011;43961;52.940;6.834;2022-10-31T09:01:51;77.20;;;49.78;;
57025;SDS011;43961;52.940;6.834;2022-10-31T09:04:17;39.65;;;17.35;;
57025;SDS011;43961;52.940;6.834;2022-10-31T09:06:42;85.38;;;54.17;;
57025;SDS011;43961;52.940;6.834;2022-10-31T09:09:08;57.80;;;21.40;;
57025;SDS011;43961;52.940;6.834;2022-10-31T09:11:34;40.85;;;19.77;;
57025;SDS011;43961;52.940;6.834;2022-10-31T09:13:59;82.18;;;52.60;;
57025;SDS011;43961;52.940;6.834;2022-10-31T09:16:25;76.38;;;52.70;;
57025;SDS011;43961;52.940;6.834;2022-10-31T09:18:51;82.15;;;54.45;;
57025;SDS011;43961;52.940;6.834;2022-10-31T09:21:16;92.60;;;55.15;;
57025;SDS011;43961;52.940;6.834;2022-10-31T09:23:42;76.95;;;52.67;;
57025;SDS011;43961;52.940;6.834;2022-10-31T09:26:07;77.65;;;49.85;;
57025;SDS011;43961;52.940;6.834;2022-10-31T09:28:33;81.32;;;51.08;;
57025;SDS011;43961;52.940;6.834;2022-10-31T09:30:59;77.88;;;52.88;;
57025;SDS011;43961;52.940;6.834;2022-10-31T09:33:24;69.93;;;48.85;;
57025;SDS011;43961;52.940;6.834;2022-10-31T09:35:50;74.57;;;49.95;;
57025;SDS011;43961;52.940;6.834;2022-10-31T09:38:17;83.93;;;52.53;;
57025;SDS011;43961;52.940;6.834;2022-10-31T09:46:18;68.00;;;48.08;;
57025;SDS011;43961;52.940;6.834;2022-10-31T09:49:07;74.45;;;48.28;;
57025;SDS011;43961;52.940;6.834;2022-10-31T09:51:59;72.80;;;49.15;;
57025;SDS011;43961;52.940;6.834;2022-10-31T09:57:10;77.57;;;51.35;;
57025;SDS011;43961;52.940;6.834;2022-10-31T09:59:40;90.32;;;52.25;;
57025;SDS011;43961;52.940;6.834;2022-10-31T10:07:22;70.90;;;48.47;;
57025;SDS011;43961;52.940;6.834;2022-10-31T10:09:55;84.05;;;53.13;;
57025;SDS011;43961;52.940;6.834;2022-10-31T10:25:16;76.22;;;50.50;;
57025;SDS011;43961;52.940;6.834;2022-10-31T10:27:58;74.25;;;49.58;;
57025;SDS011;43961;52.940;6.834;2022-10-31T10:30:33;97.18;;;52.85;;
57025;SDS011;43961;52.940;6.834;2022-10-31T10:33:39;85.43;;;52.05;;
57025;SDS011;43961;52.940;6.834;2022-10-31T10:36:04;85.37;;;49.57;;
57025;SDS011;43961;52.940;6.834;2022-10-31T10:38:53;71.72;;;49.08;;
57025;SDS011;43961;52.940;6.834;2022-10-31T10:41:24;64.40;;;42.45;;
57025;SDS011;43961;52.940;6.834;2022-10-31T10:43:52;75.95;;;45.92;;
57025;SDS011;43961;52.940;6.834;2022-10-31T10:46:26;75.70;;;46.13;;
57025;SDS011;43961;52.940;6.834;2022-10-31T10:57:38;66.43;;;41.72;;
57025;SDS011;43961;52.940;6.834;2022-10-31T11:00:19;77.32;;;42.95;;
57025;SDS011;43961;52.940;6.834;2022-10-31T11:02:54;68.07;;;41.50;;
57025;SDS011;43961;52.940;6.834;2022-10-31T11:06:15;60.90;;;41.95;;
57025;SDS011;43961;52.940;6.834;2022-10-31T11:08:35;66.75;;;39.85;;
57025;SDS011;43961;52.940;6.834;2022-10-31T11:11:08;61.63;;;38.15;;
57025;SDS011;43961;52.940;6.834;2022-10-31T11:13:36;69.07;;;38.50;;
57025;SDS011;43961;52.940;6.834;2022-10-31T11:16:09;68.10;;;41.78;;
57025;SDS011;43961;52.940;6.834;2022-10-31T11:18:41;72.40;;;43.15;;
57025;SDS011;43961;52.940;6.834;2022-10-31T11:21:29;67.85;;;41.30;;
57025;SDS011;43961;52.940;6.834;2022-10-31T11:26:36;72.20;;;39.15;;
57025;SDS011;43961;52.940;6.834;2022-10-31T11:29:03;62.53;;;38.17;;
57025;SDS011;43961;52.940;6.834;2022-10-31T11:31:30;77.32;;;39.67;;
57025;SDS011;43961;52.940;6.834;2022-10-31T11:34:04;78.78;;;41.00;;
57025;SDS011;43961;52.940;6.834;2022-10-31T11:36:38;66.75;;;37.35;;
57025;SDS011;43961;52.940;6.834;2022-10-31T11:39:14;70.25;;;36.00;;
57025;SDS011;43961;52.940;6.834;2022-10-31T11:41:46;65.68;;;32.90;;
57025;SDS011;43961;52.940;6.834;2022-10-31T11:47:14;52.17;;;32.05;;
57025;SDS011;43961;52.940;6.834;2022-10-31T11:49:41;57.60;;;33.92;;
57025;SDS011;43961;52.940;6.834;2022-10-31T11:54:41;63.00;;;33.45;;
57025;SDS011;43961;52.940;6.834;2022-10-31T11:57:22;54.22;;;31.65;;
57025;SDS011;43961;52.940;6.834;2022-10-31T11:59:55;56.58;;;34.88;;
57025;SDS011;43961;52.940;6.834;2022-10-31T12:02:23;56.90;;;31.58;;
57025;SDS011;43961;52.940;6.834;2022-10-31T12:05:07;58.75;;;34.45;;
57025;SDS011;43961;52.940;6.834;2022-10-31T12:07:43;58.50;;;35.72;;
57025;SDS011;43961;52.940;6.834;2022-10-31T12:10:12;53.13;;;35.53;;
57025;SDS011;43961;52.940;6.834;2022-10-31T12:12:51;55.97;;;35.85;;
57025;SDS011;43961;52.940;6.834;2022-10-31T12:32:05;61.03;;;34.15;;
57025;SDS011;43961;52.940;6.834;2022-10-31T12:37:15;61.15;;;35.60;;
57025;SDS011;43961;52.940;6.834;2022-10-31T12:45:37;63.45;;;34.20;;
57025;SDS011;43961;52.940;6.834;2022-10-31T12:56:43;59.28;;;34.38;;
57025;SDS011;43961;52.940;6.834;2022-10-31T12:59:36;54.45;;;31.63;;
57025;SDS011;43961;52.940;6.834;2022-10-31T13:04:54;51.88;;;30.45;;
57025;SDS011;43961;52.940;6.834;2022-10-31T13:07:37;52.33;;;28.33;;
57025;SDS011;43961;52.940;6.834;2022-10-31T13:10:08;45.92;;;25.67;;
57025;SDS011;43961;52.940;6.834;2022-10-31T13:12:48;42.75;;;26.95;;
57025;SDS011;43961;52.940;6.834;2022-10-31T13:15:19;48.88;;;30.42;;
57025;SDS011;43961;52.940;6.834;2022-10-31T13:17:48;47.85;;;27.75;;
57025;SDS011;43961;52.940;6.834;2022-10-31T13:20:29;49.55;;;26.60;;
57025;SDS011;43961;52.940;6.834;2022-10-31T13:23:45;38.60;;;21.70;;
57025;SDS011;43961;52.940;6.834;2022-10-31T13:25:57;30.48;;;17.75;;
57025;SDS011;43961;52.940;6.834;2022-10-31T13:28:29;40.90;;;17.38;;
57025;SDS011;43961;52.940;6.834;2022-10-31T13:31:02;25.48;;;14.80;;
57025;SDS011;43961;52.940;6.834;2022-10-31T13:36:19;34.22;;;16.35;;
57025;SDS011;43961;52.940;6.834;2022-10-31T13:38:59;30.38;;;16.98;;
57025;SDS011;43961;52.940;6.834;2022-10-31T13:41:48;26.85;;;16.23;;
57025;SDS011;43961;52.940;6.834;2022-10-31T13:44:18;29.90;;;15.38;;
57025;SDS011;43961;52.940;6.834;2022-10-31T13:46:49;20.40;;;13.23;;
57025;SDS011;43961;52.940;6.834;2022-10-31T13:54:37;28.90;;;14.05;;
57025;SDS011;43961;52.940;6.834;2022-10-31T13:59:54;26.23;;;14.70;;
57025;SDS011;43961;52.940;6.834;2022-10-31T14:02:34;27.17;;;14.73;;
57025;SDS011;43961;52.940;6.834;2022-10-31T14:05:02;26.05;;;13.98;;
57025;SDS011;43961;52.940;6.834;2022-10-31T14:07:31;27.35;;;14.50;;
57025;SDS011;43961;52.940;6.834;2022-10-31T14:12:31;19.85;;;11.73;;
57025;SDS011;43961;52.940;6.834;2022-10-31T14:15:15;25.20;;;12.32;;
57025;SDS011;43961;52.940;6.834;2022-10-31T14:17:46;17.83;;;10.50;;
57025;SDS011;43961;52.940;6.834;2022-10-31T14:22:51;16.63;;;10.07;;
57025;SDS011;43961;52.940;6.834;2022-10-31T14:25:27;15.95;;;8.90;;
57025;SDS011;43961;52.940;6.834;2022-10-31T14:28:01;14.93;;;7.80;;
57025;SDS011;43961;52.940;6.834;2022-10-31T14:30:54;15.57;;;7.78;;
57025;SDS011;43961;52.940;6.834;2022-10-31T14:33:22;10.98;;;7.85;;
57025;SDS011;43961;52.940;6.834;2022-10-31T14:35:54;15.88;;;8.07;;
57025;SDS011;43961;52.940;6.834;2022-10-31T14:38:40;10.77;;;7.15;;
57025;SDS011;43961;52.940;6.834;2022-10-31T14:41:18;17.70;;;8.55;;
57025;SDS011;43961;52.940;6.834;2022-10-31T14:49:24;15.73;;;9.00;;
57025;SDS011;43961;52.940;6.834;2022-10-31T14:52:01;18.95;;;9.30;;
57025;SDS011;43961;52.940;6.834;2022-10-31T14:54:32;13.18;;;9.02;;
57025;SDS011;43961;52.940;6.834;2022-10-31T14:57:04;19.55;;;10.35;;
57025;SDS011;43961;52.940;6.834;2022-10-31T14:59:33;30.33;;;11.25;;
57025;SDS011;43961;52.940;6.834;2022-10-31T15:02:24;19.13;;;12.20;;
57025;SDS011;43961;52.940;6.834;2022-10-31T15:05:14;22.42;;;11.27;;
57025;SDS011;43961;52.940;6.834;2022-10-31T15:07:52;19.25;;;12.32;;
57025;SDS011;43961;52.940;6.834;2022-10-31T15:12:51;19.55;;;13.98;;
57025;SDS011;43961;52.940;6.834;2022-10-31T15:15:21;24.23;;;12.13;;
57025;SDS011;43961;52.940;6.834;2022-10-31T15:17:51;28.00;;;13.10;;
57025;SDS011;43961;52.940;6.834;2022-10-31T15:20:24;17.77;;;13.02;;
57025;SDS011;43961;52.940;6.834;2022-10-31T15:22:53;21.55;;;12.20;;
57025;SDS011;43961;52.940;6.834;2022-10-31T15:25:22;28.55;;;12.85;;
57025;SDS011;43961;52.940;6.834;2022-10-31T15:30:23;22.52;;;14.63;;
57025;SDS011;43961;52.940;6.834;2022-10-31T15:32:51;30.00;;;15.98;;
57025;SDS011;43961;52.940;6.834;2022-10-31T15:35:25;29.00;;;18.08;;
57025;SDS011;43961;52.940;6.834;2022-10-31T15:37:52;33.17;;;20.02;;
57025;SDS011;43961;52.940;6.834;2022-10-31T15:40:19;40.80;;;20.80;;
57025;SDS011;43961;52.940;6.834;2022-10-31T15:42:49;31.77;;;19.80;;
57025;SDS011;43961;52.940;6.834;2022-10-31T15:45:19;38.88;;;21.10;;
57025;SDS011;43961;52.940;6.834;2022-10-31T15:47:53;30.58;;;22.38;;
57025;SDS011;43961;52.940;6.834;2022-10-31T15:50:27;33.88;;;23.17;;
57025;SDS011;43961;52.940;6.834;2022-10-31T15:52:59;30.73;;;21.90;;
57025;SDS011;43961;52.940;6.834;2022-10-31T15:55:27;38.25;;;23.40;;
57025;SDS011;43961;52.940;6.834;2022-10-31T15:58:01;35.72;;;22.48;;
57025;SDS011;43961;52.940;6.834;2022-10-31T16:00:37;41.17;;;23.98;;
57025;SDS011;43961;52.940;6.834;2022-10-31T16:05:46;43.03;;;24.50;;
57025;SDS011;43961;52.940;6.834;2022-10-31T16:11:18;47.78;;;28.15;;
57025;SDS011;43961;52.940;6.834;2022-10-31T16:13:53;45.22;;;28.10;;
57025;SDS011;43961;52.940;6.834;2022-10-31T16:16:19;44.30;;;28.38;;
57025;SDS011;43961;52.940;6.834;2022-10-31T16:18:45;44.28;;;27.58;;
57025;SDS011;43961;52.940;6.834;2022-10-31T16:21:12;43.58;;;26.48;;
57025;SDS011;43961;52.940;6.834;2022-10-31T16:23:38;44.45;;;28.70;;
57025;SDS011;43961;52.940;6.834;2022-10-31T16:26:09;51.30;;;29.70;;
57025;SDS011;43961;52.940;6.834;2022-10-31T16:28:38;44.28;;;28.85;;
57025;SDS011;43961;52.940;6.834;2022-10-31T16:31:12;47.05;;;30.63;;
57025;SDS011;43961;52.940;6.834;2022-10-31T16:33:39;54.38;;;31.10;;
57025;SDS011;43961;52.940;6.834;2022-10-31T16:39:10;52.13;;;33.92;;
57025;SDS011;43961;52.940;6.834;2022-10-31T16:41:39;49.05;;;32.10;;
57025;SDS011;43961;52.940;6.834;2022-10-31T16:44:13;63.30;;;34.83;;
57025;SDS011;43961;52.940;6.834;2022-10-31T16:46:43;58.58;;;37.40;;
57025;SDS011;43961;52.940;6.834;2022-10-31T16:49:10;58.50;;;37.63;;
57025;SDS011;43961;52.940;6.834;2022-10-31T16:51:36;61.53;;;39.85;;
57025;SDS011;43961;52.940;6.834;2022-10-31T16:54:01;73.07;;;39.70;;
57025;SDS011;43961;52.940;6.834;2022-10-31T16:56:28;69.78;;;38.78;;
57025;SDS011;43961;52.940;6.834;2022-10-31T16:58:56;70.85;;;43.05;;
57025;SDS011;43961;52.940;6.834;2022-10-31T17:01:26;74.00;;;43.85;;
57025;SDS011;43961;52.940;6.834;2022-10-31T17:03:52;71.63;;;43.22;;
57025;SDS011;43961;52.940;6.834;2022-10-31T17:06:18;94.28;;;47.25;;
57025;SDS011;43961;52.940;6.834;2022-10-31T17:08:43;82.72;;;46.22;;
57025;SDS011;43961;52.940;6.834;2022-10-31T17:11:18;77.03;;;46.72;;
57025;SDS011;43961;52.940;6.834;2022-10-31T17:13:47;84.20;;;48.30;;
57025;SDS011;43961;52.940;6.834;2022-10-31T17:16:13;84.28;;;48.88;;